Time;durP1;ratioP1;P1;durP2;ratioP2;P2;SDS_P1;SDS_P2;PMS_P1;PMS_P2;Temp;Humidity;BMP_temperature;BMP_pressure;BME280_temperature;BME280_humidity;BME280_pressure;Samples;Min_cycle;Max_cycle;Signal;HPM_P1;HPM_P2
2022/04/26 03:36:40;;;;;;;1.30;1.27;;;5.20;99.90;;;;;;5035201;28;20048;-73
2022/04/26 03:39:07;;;;;;;3.63;2.08;;;5.20;99.90;;;;;;5030905;28;20475;-73
2022/04/26 03:41:33;;;;;;;1.27;1.27;;;5.20;99.90;;;;;;5032250;28;20503;-73
2022/04/26 03:43:59;;;;;;;9.38;1.98;;;5.20;99.90;;;;;;5051794;28;20041;-73
2022/04/26 03:46:25;;;;;;;0.80;0.80;;;5.20;99.90;;;;;;5035983;28;20048;-73
2022/04/26 03:48:51;;;;;;;1.08;1.08;;;5.20;99.90;;;;;;5057105;28;20040;-73
2022/04/26 03:51:17;;;;;;;1.45;1.45;;;5.10;99.90;;;;;;5062604;28;20056;-73
2022/04/26 03:53:42;;;;;;;1.20;1.20;;;5.10;99.90;;;;;;5053093;28;20163;-73
2022/04/26 03:56:08;;;;;;;1.20;1.20;;;5.10;99.90;;;;;;5057433;28;20036;-73
2022/04/26 03:58:34;;;;;;;1.10;1.10;;;5.10;99.90;;;;;;5072035;28;20527;-73
2022/04/26 04:01:00;;;;;;;1.30;1.25;;;5.00;99.90;;;;;;5032392;28;20033;-73
2022/04/26 04:03:26;;;;;;;1.10;1.10;;;5.00;99.90;;;;;;5035561;28;20481;-73
2022/04/26 04:05:52;;;;;;;2.45;2.30;;;5.00;99.90;;;;;;5053040;28;20453;-73
2022/04/26 04:08:18;;;;;;;1.00;1.00;;;5.00;99.90;;;;;;5034845;28;20051;-73
2022/04/26 04:10:44;;;;;;;1.80;1.73;;;4.90;99.90;;;;;;5051577;28;20047;-73
2022/04/26 04:13:10;;;;;;;1.30;1.30;;;4.90;99.90;;;;;;5035584;28;20043;-73
2022/04/26 04:15:36;;;;;;;1.15;1.15;;;4.90;99.90;;;;;;5040557;28;20040;-73
2022/04/26 04:18:02;;;;;;;1.25;1.25;;;4.90;99.90;;;;;;5031347;28;20044;-73
2022/04/26 04:20:29;;;;;;;1.30;1.30;;;4.90;99.90;;;;;;5050630;28;20411;-73
2022/04/26 04:22:56;;;;;;;1.00;1.00;;;4.90;99.90;;;;;;5032410;28;20052;-74
2022/04/26 04:25:21;;;;;;;1.05;1.05;;;4.90;99.90;;;;;;5061280;28;20044;-73
2022/04/26 04:27:47;;;;;;;1.42;1.42;;;5.00;99.90;;;;;;5032090;28;20049;-73
2022/04/26 04:30:13;;;;;;;1.15;1.15;;;5.00;99.90;;;;;;5048346;28;20140;-73
2022/04/26 04:32:39;;;;;;;1.00;1.00;;;5.10;99.90;;;;;;5058317;28;20036;-73
2022/04/26 04:35:06;;;;;;;1.50;1.50;;;5.20;99.90;;;;;;5050365;28;20033;-73
2022/04/26 04:37:32;;;;;;;1.00;1.00;;;5.20;99.90;;;;;;5050996;28;20043;-73
2022/04/26 04:39:57;;;;;;;1.85;1.75;;;5.30;99.90;;;;;;5040221;28;20119;-73
2022/04/26 04:42:23;;;;;;;1.13;1.13;;;5.40;99.90;;;;;;5045825;28;20040;-73
2022/04/26 04:44:49;;;;;;;1.20;1.20;;;5.40;99.90;;;;;;5034730;28;20040;-73
2022/04/26 04:47:14;;;;;;;0.95;0.95;;;5.50;99.90;;;;;;5034514;28;20045;-73
2022/04/26 04:49:40;;;;;;;1.15;1.15;;;5.60;99.90;;;;;;5035725;28;20373;-73
2022/04/26 04:52:06;;;;;;;0.80;0.80;;;5.60;99.90;;;;;;5036692;28;20076;-73
2022/04/26 04:54:32;;;;;;;1.15;1.15;;;5.60;99.90;;;;;;5046457;28;20102;-73
2022/04/26 04:56:57;;;;;;;3.00;2.40;;;5.70;99.90;;;;;;5039675;28;20032;-73
2022/04/26 04:59:23;;;;;;;1.48;1.48;;;5.70;99.90;;;;;;5052891;28;20071;-73
2022/04/26 05:01:49;;;;;;;0.85;0.85;;;5.80;99.90;;;;;;5052864;28;20151;-73
2022/04/26 05:04:14;;;;;;;1.25;1.25;;;5.80;99.90;;;;;;5031244;28;20041;-73
2022/04/26 05:06:40;;;;;;;2.33;2.22;;;5.90;99.90;;;;;;5048191;28;20071;-73
2022/04/26 05:09:05;;;;;;;1.45;1.38;;;5.90;99.90;;;;;;5046955;28;20032;-73
2022/04/26 05:11:31;;;;;;;1.20;1.20;;;6.00;99.90;;;;;;5057594;28;20517;-73
2022/04/26 05:13:57;;;;;;;5.72;1.33;;;6.00;99.90;;;;;;5056333;28;20045;-73
2022/04/26 05:16:22;;;;;;;1.00;1.00;;;6.10;99.90;;;;;;5034238;28;20040;-73
2022/04/26 05:18:48;;;;;;;2.17;1.98;;;6.20;99.90;;;;;;5066814;28;20108;-73
2022/04/26 05:21:14;;;;;;;2.03;1.92;;;6.30;99.90;;;;;;5042982;28;20514;-73
2022/04/26 05:26:45;;;;;;;1.05;1.05;;;7.10;99.90;;;;;;4931958;29;20130;-73
2022/04/26 05:29:11;;;;;;;2.03;1.92;;;7.60;99.90;;;;;;4940537;28;20077;-73
2022/04/26 05:31:36;;;;;;;1.25;1.25;;;7.80;99.90;;;;;;4967643;28;20086;-73
2022/04/26 05:34:02;;;;;;;1.05;1.05;;;8.30;99.90;;;;;;4968438;28;20034;-73
2022/04/26 05:36:27;;;;;;;1.20;1.20;;;9.00;99.90;;;;;;4950865;28;20047;-74
2022/04/26 05:38:53;;;;;;;2.63;1.83;;;9.30;99.90;;;;;;4964272;28;20152;-73
2022/04/26 05:41:19;;;;;;;1.23;1.23;;;9.50;99.90;;;;;;4959241;28;20066;-74
2022/04/26 05:43:44;;;;;;;0.90;0.90;;;9.80;99.90;;;;;;4951860;28;20130;-73
2022/04/26 05:46:11;;;;;;;1.10;1.10;;;10.10;99.90;;;;;;4958235;28;20110;-74
2022/04/26 05:48:36;;;;;;;0.80;0.80;;;10.10;99.90;;;;;;4960077;28;20053;-73
2022/04/26 05:51:03;;;;;;;3.17;2.85;;;9.90;99.90;;;;;;4962057;28;20042;-74
2022/04/26 05:53:29;;;;;;;1.30;1.30;;;9.60;99.90;;;;;;4948513;28;20122;-73
2022/04/26 05:55:54;;;;;;;1.33;1.33;;;9.40;99.90;;;;;;4954545;28;20038;-74
2022/04/26 05:58:20;;;;;;;2.58;1.40;;;9.10;99.90;;;;;;4954536;28;20056;-73
2022/04/26 06:00:46;;;;;;;0.90;0.90;;;8.90;99.90;;;;;;4959294;28;20074;-74
2022/04/26 06:03:11;;;;;;;0.93;0.93;;;8.80;99.90;;;;;;5008936;28;20534;-73
2022/04/26 06:05:37;;;;;;;3.90;2.33;;;8.70;99.90;;;;;;5034531;28;20059;-74
2022/04/26 06:08:03;;;;;;;2.95;2.75;;;8.70;99.90;;;;;;5043952;28;20037;-73
2022/04/26 06:10:28;;;;;;;0.75;0.75;;;8.70;99.90;;;;;;5050938;28;20368;-73
2022/04/26 06:12:54;;;;;;;1.05;1.05;;;8.90;99.90;;;;;;5042065;28;20035;-74
2022/04/26 06:15:21;;;;;;;0.82;0.82;;;9.10;99.90;;;;;;5069428;28;20121;-73
2022/04/26 06:17:47;;;;;;;0.70;0.70;;;9.30;99.90;;;;;;5044917;28;20074;-74
2022/04/26 06:20:13;;;;;;;9.13;2.90;;;9.60;99.90;;;;;;5044257;28;20044;-74
2022/04/26 06:22:39;;;;;;;0.98;0.98;;;10.30;99.90;;;;;;5034774;28;20044;-73
2022/04/26 06:25:05;;;;;;;0.50;0.50;;;11.00;99.90;;;;;;5025312;28;20049;-74
2022/04/26 06:27:31;;;;;;;1.05;1.05;;;11.30;99.90;;;;;;5032871;28;20041;-74
2022/04/26 06:29:56;;;;;;;2.38;1.63;;;11.20;99.90;;;;;;5050805;28;20471;-74
2022/04/26 06:32:22;;;;;;;4.03;2.30;;;11.20;99.90;;;;;;5033975;28;20044;-73
2022/04/26 06:34:48;;;;;;;0.73;0.73;;;10.80;99.90;;;;;;5031886;28;20032;-73
2022/04/26 06:37:14;;;;;;;3.85;1.80;;;10.50;99.90;;;;;;5052890;28;20048;-73
2022/04/26 06:39:40;;;;;;;2.30;2.08;;;10.20;99.90;;;;;;5024771;28;20041;-74
2022/04/26 06:42:06;;;;;;;0.90;0.90;;;9.90;99.90;;;;;;5042733;28;20074;-73
2022/04/26 06:44:32;;;;;;;1.05;1.05;;;9.70;99.90;;;;;;5046916;28;20036;-73
2022/04/26 06:46:57;;;;;;;1.02;0.98;;;9.50;99.90;;;;;;5052788;28;20044;-74
2022/04/26 06:49:23;;;;;;;0.70;0.70;;;9.50;99.90;;;;;;5051960;28;20037;-74
2022/04/26 06:51:49;;;;;;;1.10;1.10;;;9.40;99.90;;;;;;5028791;28;20091;-73
2022/04/26 06:54:15;;;;;;;0.70;0.70;;;9.40;99.90;;;;;;5031115;28;20036;-73
2022/04/26 06:56:40;;;;;;;0.73;0.73;;;9.30;99.90;;;;;;5031368;28;20110;-73
2022/04/26 06:59:06;;;;;;;15.63;1.55;;;9.70;99.90;;;;;;5015087;28;20491;-74
2022/04/26 07:01:32;;;;;;;2.45;1.55;;;10.90;99.90;;;;;;5031501;28;20037;-73
2022/04/26 07:03:57;;;;;;;1.63;1.52;;;11.80;99.90;;;;;;5012749;28;20953;-74
2022/04/26 07:06:23;;;;;;;1.63;1.52;;;12.10;99.90;;;;;;5013659;28;20041;-74
2022/04/26 07:08:49;;;;;;;1.38;1.27;;;12.00;99.90;;;;;;5015140;28;20136;-74
2022/04/26 07:11:15;;;;;;;3.25;2.97;;;11.90;99.90;;;;;;5030061;28;20201;-74
2022/04/26 07:13:41;;;;;;;1.50;1.40;;;11.90;99.90;;;;;;5014171;28;20503;-73
2022/04/26 07:16:07;;;;;;;4.25;1.92;;;11.70;99.90;;;;;;5029810;28;20041;-74
2022/04/26 07:18:34;;;;;;;0.80;0.80;;;11.40;99.90;;;;;;5010599;28;20040;-73
2022/04/26 07:20:59;;;;;;;0.82;0.82;;;11.00;99.90;;;;;;5030251;28;20044;-74
2022/04/26 07:23:25;;;;;;;0.73;0.70;;;10.70;99.90;;;;;;5028105;28;20087;-74
2022/04/26 07:25:52;;;;;;;7.03;1.77;;;10.50;99.90;;;;;;5032116;28;20083;-73
2022/04/26 07:28:19;;;;;;;0.60;0.60;;;10.50;99.90;;;;;;5030417;28;20053;-74
2022/04/26 07:30:45;;;;;;;2.97;0.93;;;10.50;99.90;;;;;;5032084;28;20053;-74
2022/04/26 07:35:55;;;;;;;0.60;0.60;;;10.80;99.90;;;;;;5028990;28;20057;-73
2022/04/26 07:38:20;;;;;;;0.90;0.90;;;11.10;99.90;;;;;;5029109;28;20091;-73
2022/04/26 07:40:46;;;;;;;0.32;0.32;;;11.40;99.90;;;;;;5015821;28;20136;-73
2022/04/26 07:43:13;;;;;;;1.92;1.83;;;11.60;99.90;;;;;;5028656;28;20068;-73
2022/04/26 07:45:40;;;;;;;3.13;1.83;;;11.70;99.90;;;;;;5006629;28;20044;-73
2022/04/26 07:48:07;;;;;;;3.25;1.85;;;11.80;99.90;;;;;;5032238;28;20124;-73
2022/04/26 07:50:35;;;;;;;20.90;2.50;;;11.90;99.90;;;;;;5022907;28;20137;-73
2022/04/26 07:53:02;;;;;;;1.48;1.00;;;11.80;99.90;;;;;;5034229;28;20045;-73
2022/04/26 07:55:28;;;;;;;0.57;0.57;;;11.60;99.90;;;;;;5035678;28;20044;-74
2022/04/26 07:57:54;;;;;;;4.88;1.10;;;11.30;99.90;;;;;;5015799;28;20122;-73
2022/04/26 08:00:20;;;;;;;0.65;0.65;;;10.90;99.90;;;;;;5034135;28;20087;-73
2022/04/26 08:02:49;;;;;;;2.53;1.38;;;10.80;99.90;;;;;;5033504;28;20076;-73
2022/04/26 08:05:15;;;;;;;0.50;0.50;;;10.70;99.90;;;;;;5039751;28;20491;-73
2022/04/26 08:07:41;;;;;;;1.33;1.23;;;10.80;99.90;;;;;;5032200;28;20102;-73
2022/04/26 08:10:13;;;;;;;3.58;2.00;;;10.90;99.90;;;;;;5021562;28;20032;-73
2022/04/26 08:12:39;;;;;;;0.40;0.40;;;11.20;99.90;;;;;;5026223;28;20040;-74
2022/04/26 08:15:06;;;;;;;0.93;0.90;;;11.50;99.90;;;;;;5012945;28;20036;-73
2022/04/26 08:17:31;;;;;;;6.07;2.40;;;11.70;99.90;;;;;;5030796;28;20127;-73
2022/04/26 08:19:57;;;;;;;4.50;1.70;;;11.80;99.90;;;;;;5024355;28;20136;-74
2022/04/26 08:22:23;;;;;;;6.35;1.60;;;11.80;99.90;;;;;;5023296;28;20067;-73
2022/04/26 08:27:33;;;;;;;0.75;0.50;;;11.80;99.90;;;;;;5025306;28;20846;-73
2022/04/26 08:30:02;;;;;;;1.40;1.30;;;11.60;99.90;;;;;;5031606;28;20120;-73
2022/04/26 08:32:38;;;;;;;3.13;1.23;;;11.50;99.90;;;;;;5031478;28;20052;-73
2022/04/26 08:35:06;;;;;;;1.55;1.25;;;11.60;99.90;;;;;;5030716;28;20076;-73
2022/04/26 08:37:33;;;;;;;0.38;0.38;;;11.70;99.90;;;;;;5015505;28;20140;-73
2022/04/26 08:39:58;;;;;;;0.55;0.55;;;11.80;99.90;;;;;;5011273;28;20048;-73
2022/04/26 08:42:36;;;;;;;1.80;1.17;;;12.10;99.90;;;;;;5024942;28;20037;-73
2022/04/26 08:45:04;;;;;;;3.70;1.27;;;12.50;99.90;;;;;;5018158;28;20634;-73
2022/04/26 08:52:58;;;;;;;0.30;0.30;;;13.90;99.70;;;;;;5050917;28;20084;-73
2022/04/26 08:55:24;;;;;;;0.68;0.68;;;14.30;99.90;;;;;;5049713;28;20040;-74
2022/04/26 08:57:51;;;;;;;0.20;0.20;;;14.50;98.00;;;;;;5031056;28;20045;-73
2022/04/26 09:00:17;;;;;;;0.60;0.60;;;14.10;97.80;;;;;;5031136;28;20155;-73
2022/04/26 09:02:43;;;;;;;0.60;0.60;;;14.10;99.00;;;;;;5044162;28;20132;-73
2022/04/26 09:05:11;;;;;;;2.05;1.58;;;14.50;98.20;;;;;;5051100;28;20051;-73
2022/04/26 09:07:37;;;;;;;0.85;0.85;;;15.30;98.80;;;;;;5050857;28;20411;-73
2022/04/26 09:10:05;;;;;;;3.33;0.88;;;15.60;94.40;;;;;;5050280;28;20044;-74
2022/04/26 09:12:31;;;;;;;1.13;0.38;;;16.00;95.50;;;;;;5050995;28;20123;-73
2022/04/26 09:15:11;;;;;;;2.67;1.70;;;15.90;93.30;;;;;;5051228;28;20187;-73
2022/04/26 09:17:37;;;;;;;0.38;0.38;;;16.00;92.50;;;;;;5031067;28;20045;-74
2022/04/26 09:20:04;;;;;;;0.52;0.52;;;16.20;92.20;;;;;;5029639;28;20070;-73
2022/04/26 09:22:30;;;;;;;0.68;0.50;;;16.60;91.80;;;;;;5030135;28;20044;-73
2022/04/26 09:25:08;;;;;;;6.22;1.48;;;16.90;87.90;;;;;;5031378;28;20037;-73
2022/04/26 09:27:39;;;;;;;1.48;0.93;;;16.40;88.90;;;;;;5036348;28;20455;-73
2022/04/26 09:30:13;;;;;;;0.90;0.77;;;15.40;83.50;;;;;;5049500;28;20055;-74
2022/04/26 09:32:48;;;;;;;1.80;0.73;;;14.90;91.20;;;;;;5057838;28;20511;-74
2022/04/26 09:35:29;;;;;;;5.47;1.05;;;15.00;91.30;;;;;;5053969;28;20074;-73
2022/04/26 09:37:55;;;;;;;0.30;0.30;;;14.50;90.30;;;;;;5058182;28;20485;-73
2022/04/26 09:40:21;;;;;;;0.77;0.77;;;14.50;90.40;;;;;;5034242;28;20080;-74
2022/04/26 09:42:50;;;;;;;0.75;0.75;;;15.00;92.30;;;;;;5056747;28;20080;-73
2022/04/26 09:45:16;;;;;;;1.42;1.00;;;15.00;91.90;;;;;;5032724;28;20055;-73
2022/04/26 09:47:43;;;;;;;0.40;0.40;;;14.90;92.10;;;;;;5056229;28;20124;-73
2022/04/26 09:50:16;;;;;;;1.00;0.90;;;14.50;91.40;;;;;;5034899;28;20049;-74
2022/04/26 09:52:42;;;;;;;0.68;0.68;;;14.00;91.50;;;;;;5055896;28;20048;-74
2022/04/26 09:55:09;;;;;;;4.18;1.73;;;13.70;91.50;;;;;;5062223;28;20059;-73
2022/04/26 09:57:38;;;;;;;2.30;1.08;;;14.00;93.10;;;;;;5062773;28;20423;-73
2022/04/26 10:00:08;;;;;;;4.68;1.70;;;14.50;93.30;;;;;;5055377;28;20094;-73
2022/04/26 10:02:36;;;;;;;7.78;1.33;;;14.90;87.00;;;;;;5057996;28;20067;-73
2022/04/26 10:05:04;;;;;;;0.32;0.32;;;15.20;90.40;;;;;;5061333;28;20437;-73
2022/04/26 10:07:37;;;;;;;1.15;0.50;;;15.20;90.40;;;;;;5058205;28;20561;-73
2022/04/26 10:10:03;;;;;;;;;;;14.90;85.50;;;;;;5052962;28;20042;-73
2022/04/26 10:12:30;;;;;;;6.43;0.95;;;14.40;89.50;;;;;;5045514;28;20434;-74
2022/04/26 10:14:57;;;;;;;3.78;1.30;;;14.50;91.30;;;;;;5059253;28;20504;-73
2022/04/26 10:17:23;;;;;;;0.20;0.20;;;14.80;89.60;;;;;;5058635;28;20593;-73
2022/04/26 10:19:49;;;;;;;2.08;1.42;;;14.40;86.90;;;;;;5054149;28;20040;-73
2022/04/26 10:22:17;;;;;;;0.20;0.20;;;14.10;88.40;;;;;;5056366;28;20046;-73
2022/04/26 10:25:12;;;;;;;3.10;1.25;;;14.00;90.20;;;;;;5059317;28;20041;-73
2022/04/26 10:27:38;;;;;;;2.75;1.08;;;13.90;90.30;;;;;;5048275;28;20485;-73
2022/04/26 10:30:04;;;;;;;2.35;0.98;;;13.80;90.50;;;;;;5053896;28;20040;-73
2022/04/26 10:32:34;;;;;;;3.22;1.48;;;14.30;91.20;;;;;;5050840;28;20409;-73
2022/04/26 10:35:36;;;;;;;0.57;0.57;;;14.70;89.90;;;;;;5058510;28;20505;-73
2022/04/26 10:38:11;;;;;;;0.80;0.60;;;14.90;86.60;;;;;;4983539;28;20045;-73
2022/04/26 10:41:10;;;;;;;0.20;0.20;;;14.80;86.30;;;;;;5053399;28;20052;-73
2022/04/26 10:43:36;;;;;;;0.25;0.25;;;15.00;89.90;;;;;;5009860;28;20059;-73
2022/04/26 10:46:12;;;;;;;0.57;0.43;;;15.20;89.00;;;;;;5052926;28;20496;-74
2022/04/26 10:48:38;;;;;;;1.65;0.85;;;15.50;88.00;;;;;;5043396;28;20093;-73
2022/04/26 10:51:35;;;;;;;1.10;1.00;;;15.70;89.40;;;;;;5056169;28;20057;-73
2022/04/26 10:54:04;;;;;;;3.92;1.40;;;15.70;82.10;;;;;;5058741;28;20045;-73
2022/04/26 10:56:31;;;;;;;0.93;0.73;;;15.60;82.80;;;;;;5053594;28;20070;-72
2022/04/26 10:58:56;;;;;;;3.83;1.05;;;15.70;79.80;;;;;;5036898;28;20039;-73
2022/04/26 11:01:24;;;;;;;0.30;0.30;;;15.90;81.30;;;;;;5056545;28;20045;-73
2022/04/26 11:03:55;;;;;;;0.10;0.10;;;16.00;81.50;;;;;;5033542;28;20478;-74
2022/04/26 11:06:38;;;;;;;0.88;0.40;;;15.90;80.20;;;;;;5046847;28;20055;-74
2022/04/26 11:09:15;;;;;;;0.55;0.55;;;15.40;78.50;;;;;;5036105;28;20587;-73
2022/04/26 11:11:54;;;;;;;0.68;0.68;;;15.00;80.00;;;;;;5032019;28;20622;-73
2022/04/26 11:14:21;;;;;;;1.48;1.38;;;15.20;82.60;;;;;;5050297;28;20604;-73
2022/04/26 11:16:58;;;;;;;0.88;0.70;;;15.50;80.70;;;;;;5061003;28;20063;-73
2022/04/26 11:19:29;;;;;;;2.30;1.17;;;15.60;80.70;;;;;;5052365;28;20066;-73
2022/04/26 11:21:55;;;;;;;0.80;0.80;;;15.60;76.90;;;;;;5038029;28;20040;-73
2022/04/26 11:29:53;;;;;;;1.77;1.23;;;16.00;77.40;;;;;;5040971;28;20036;-73
2022/04/26 11:32:42;;;;;;;0.20;0.20;;;16.00;75.30;;;;;;5054579;28;20047;-73
2022/04/26 11:35:09;;;;;;;1.85;1.60;;;15.70;75.50;;;;;;5052797;28;20392;-73
2022/04/26 11:37:49;;;;;;;11.82;1.10;;;15.30;71.50;;;;;;5040072;28;20079;-73
2022/04/26 11:40:23;;;;;;;2.00;1.33;;;15.20;75.80;;;;;;5055865;28;20504;-73
2022/04/26 11:42:50;;;;;;;1.83;1.67;;;15.50;79.20;;;;;;5034562;28;20041;-73
2022/04/26 11:45:17;;;;;;;3.35;1.10;;;15.90;78.90;;;;;;5054707;28;20443;-73
2022/04/26 11:47:50;;;;;;;1.15;0.82;;;16.00;74.80;;;;;;5054585;28;20051;-73
2022/04/26 11:50:27;;;;;;;2.20;1.50;;;16.10;75.50;;;;;;5034023;28;20098;-73
2022/04/26 11:52:59;;;;;;;0.30;0.30;;;16.30;74.70;;;;;;5037477;28;20044;-73
2022/04/26 11:55:28;;;;;;;7.65;1.52;;;16.40;73.60;;;;;;5057891;28;20092;-73
2022/04/26 11:58:07;;;;;;;0.52;0.52;;;16.60;71.90;;;;;;5056701;28;20045;-74
2022/04/26 12:00:33;;;;;;;0.10;0.10;;;16.50;72.70;;;;;;5051434;28;20060;-73
2022/04/26 12:03:01;;;;;;;0.40;0.40;;;16.50;73.30;;;;;;5055303;28;20047;-73
2022/04/26 12:05:26;;;;;;;3.53;0.63;;;16.60;75.10;;;;;;5043775;28;20127;-73
2022/04/26 12:07:52;;;;;;;0.45;0.45;;;16.80;72.00;;;;;;5044512;28;20159;-73
2022/04/26 12:10:28;;;;;;;0.55;0.55;;;16.70;70.30;;;;;;5039565;28;20195;-73
2022/04/26 12:13:02;;;;;;;0.52;0.52;;;16.30;68.80;;;;;;5058772;28;20135;-73
2022/04/26 12:15:33;;;;;;;1.25;0.73;;;16.10;68.60;;;;;;5051356;28;20489;-72
2022/04/26 12:18:13;;;;;;;0.30;0.28;;;16.30;70.00;;;;;;5059054;28;20037;-73
2022/04/26 12:21:00;;;;;;;0.30;0.30;;;15.90;69.60;;;;;;5031134;28;20040;-73
2022/04/26 12:23:27;;;;;;;1.05;0.90;;;15.60;70.30;;;;;;5031512;28;20090;-73
2022/04/26 12:26:14;;;;;;;0.70;0.60;;;15.50;71.20;;;;;;5051160;28;20044;-73
2022/04/26 12:28:51;;;;;;;0.57;0.57;;;15.40;72.30;;;;;;5037883;28;20048;-73
2022/04/26 12:31:25;;;;;;;2.03;0.57;;;15.20;70.80;;;;;;5061156;28;20044;-73
2022/04/26 12:34:13;;;;;;;0.20;0.20;;;14.80;71.50;;;;;;5053029;28;20066;-72
2022/04/26 12:37:00;;;;;;;0.10;0.10;;;14.50;71.90;;;;;;5054687;28;20051;-73
2022/04/26 12:39:42;;;;;;;0.20;0.20;;;14.20;72.10;;;;;;5054641;28;20078;-73
2022/04/26 12:42:12;;;;;;;1.75;0.68;;;14.10;72.00;;;;;;5054121;28;20442;-73
2022/04/26 12:45:13;;;;;;;1.35;0.98;;;14.30;73.90;;;;;;5054971;28;20475;-73
2022/04/26 12:50:31;;;;;;;2.38;1.17;;;14.50;74.10;;;;;;5049740;28;20060;-72
2022/04/26 12:53:02;;;;;;;0.38;0.38;;;15.00;73.30;;;;;;5051531;28;20249;-73
2022/04/26 12:55:29;;;;;;;2.03;1.20;;;15.40;74.30;;;;;;5031653;28;20037;-73
2022/04/26 12:57:57;;;;;;;0.80;0.80;;;15.80;76.20;;;;;;5049300;28;20044;-73
2022/04/26 13:00:24;;;;;;;1.20;1.00;;;16.10;73.40;;;;;;5048613;28;20089;-73
2022/04/26 13:02:52;;;;;;;0.70;0.45;;;16.60;74.70;;;;;;5051233;28;20055;-73
2022/04/26 13:05:19;;;;;;;1.58;1.48;;;17.10;75.00;;;;;;5037538;28;20060;-73
2022/04/26 13:07:46;;;;;;;0.13;0.13;;;17.60;70.40;;;;;;5056425;28;20458;-73
2022/04/26 13:10:12;;;;;;;0.28;0.28;;;17.80;71.40;;;;;;5059097;28;20502;-73
2022/04/26 13:12:38;;;;;;;0.75;0.43;;;17.80;69.00;;;;;;5044670;28;20036;-73
2022/04/26 13:15:05;;;;;;;0.52;0.52;;;17.40;65.50;;;;;;5031572;28;20341;-73
2022/04/26 13:17:30;;;;;;;0.52;0.52;;;16.80;65.40;;;;;;5032990;28;20407;-73
2022/04/26 13:19:56;;;;;;;0.63;0.60;;;16.40;67.20;;;;;;5049817;28;20127;-73
2022/04/26 13:22:22;;;;;;;0.68;0.57;;;16.10;67.30;;;;;;5049569;28;20051;-73
2022/04/26 13:24:49;;;;;;;1.35;0.73;;;16.00;66.00;;;;;;5049857;28;20496;-73
2022/04/26 13:27:16;;;;;;;2.38;1.25;;;16.10;70.90;;;;;;5049685;28;20079;-73
2022/04/26 13:29:41;;;;;;;0.93;0.88;;;16.50;69.40;;;;;;5049908;28;20040;-73
2022/04/26 13:32:08;;;;;;;1.05;0.70;;;16.40;68.10;;;;;;5031291;28;20040;-73
2022/04/26 13:34:33;;;;;;;1.38;0.60;;;16.00;66.90;;;;;;5049684;28;20036;-73
2022/04/26 13:36:59;;;;;;;0.10;0.10;;;15.80;68.00;;;;;;5047451;28;20055;-73
2022/04/26 13:39:24;;;;;;;0.68;0.50;;;15.70;69.20;;;;;;5065335;28;20131;-73
2022/04/26 13:41:50;;;;;;;0.10;0.10;;;15.40;69.00;;;;;;5049689;28;20045;-73
2022/04/26 13:44:19;;;;;;;0.75;0.75;;;15.30;69.60;;;;;;5032511;28;20056;-73
2022/04/26 13:46:45;;;;;;;1.15;0.98;;;15.20;70.80;;;;;;5050182;28;20145;-73
2022/04/26 13:49:11;;;;;;;0.40;0.40;;;15.40;71.30;;;;;;5044552;28;20040;-73
2022/04/26 13:51:37;;;;;;;0.50;0.50;;;15.30;70.10;;;;;;5044411;28;20136;-73
2022/04/26 13:54:03;;;;;;;1.50;1.40;;;15.20;70.40;;;;;;5045455;28;20036;-73
2022/04/26 13:56:29;;;;;;;0.40;0.40;;;15.20;71.40;;;;;;5049102;28;20048;-73
2022/04/26 13:58:55;;;;;;;0.98;0.60;;;15.20;70.50;;;;;;5049814;28;20036;-73
2022/04/26 14:01:22;;;;;;;5.70;2.00;;;15.30;72.60;;;;;;5025698;28;20040;-73
2022/04/26 14:03:49;;;;;;;0.85;0.30;;;15.30;71.40;;;;;;5031737;28;20364;-73
2022/04/26 14:06:18;;;;;;;0.60;0.60;;;15.00;69.90;;;;;;5039412;28;20044;-73
2022/04/26 14:08:48;;;;;;;0.43;0.40;;;14.90;73.50;;;;;;5061464;28;20044;-73
2022/04/26 14:11:14;;;;;;;0.10;0.10;;;15.00;71.60;;;;;;5056927;28;20373;-73
2022/04/26 14:22:06;;;;;;;0.30;0.30;;;14.30;71.80;;;;;;5073166;28;20044;-72
2022/04/26 14:24:31;;;;;;;1.08;0.88;;;14.10;72.40;;;;;;5059277;28;20044;-72
2022/04/26 14:26:57;;;;;;;2.15;1.00;;;14.00;73.10;;;;;;5060323;28;20572;-72
2022/04/26 14:29:23;;;;;;;0.17;0.17;;;13.90;72.50;;;;;;5057652;28;20040;-72
2022/04/26 14:31:51;;;;;;;0.65;0.65;;;13.80;73.40;;;;;;5056097;28;20081;-72
2022/04/26 14:34:17;;;;;;;2.63;1.27;;;13.60;73.60;;;;;;5061054;28;20474;-73
2022/04/26 14:36:43;;;;;;;0.15;0.15;;;13.50;73.70;;;;;;5062534;28;20029;-72
2022/04/26 14:39:08;;;;;;;0.10;0.10;;;13.40;74.50;;;;;;5041337;28;20032;-72
2022/04/26 14:41:34;;;;;;;0.52;0.52;;;13.40;75.70;;;;;;5052005;28;20120;-72
2022/04/26 14:44:00;;;;;;;0.32;0.32;;;13.50;75.60;;;;;;5052230;28;20045;-72
2022/04/26 14:46:28;;;;;;;0.45;0.20;;;13.60;77.30;;;;;;5036365;28;20040;-72
2022/04/26 14:48:54;;;;;;;0.68;0.57;;;13.70;76.10;;;;;;5051753;28;20036;-72
2022/04/26 14:51:20;;;;;;;13.68;1.17;;;13.80;75.50;;;;;;5033597;28;20056;-73
2022/04/26 14:53:45;;;;;;;0.57;0.57;;;13.70;75.00;;;;;;5052578;28;20040;-73
2022/04/26 14:56:11;;;;;;;0.20;0.20;;;13.70;75.40;;;;;;5036269;28;20039;-73
2022/04/26 14:58:36;;;;;;;2.42;1.27;;;13.90;77.40;;;;;;5052125;28;20123;-72
2022/04/26 15:01:02;;;;;;;0.63;0.60;;;14.30;77.50;;;;;;5042060;28;20037;-73
2022/04/26 15:03:30;;;;;;;2.30;0.75;;;14.80;76.10;;;;;;5050988;28;20044;-72
2022/04/26 15:05:59;;;;;;;5.30;0.75;;;15.20;76.40;;;;;;5033359;28;20477;-73
2022/04/26 15:11:09;;;;;;;3.95;1.67;;;15.60;73.50;;;;;;5050968;28;20502;-73
2022/04/26 15:16:37;;;;;;;0.10;0.10;;;16.00;70.50;;;;;;5048168;28;20136;-73
2022/04/26 15:19:04;;;;;;;0.77;0.77;;;15.70;67.80;;;;;;5025911;28;20045;-72
2022/04/26 15:21:29;;;;;;;0.30;0.30;;;15.30;68.40;;;;;;5024801;28;20053;-72
2022/04/26 15:23:55;;;;;;;0.30;0.30;;;15.10;73.40;;;;;;5042465;28;20094;-72
2022/04/26 15:26:21;;;;;;;1.98;0.95;;;15.30;69.10;;;;;;5028623;28;20068;-73
2022/04/26 15:28:47;;;;;;;1.27;0.73;;;15.50;69.00;;;;;;5042807;28;20579;-73
2022/04/26 15:31:16;;;;;;;1.38;0.80;;;15.70;68.50;;;;;;5030492;28;20040;-73
2022/04/26 15:33:43;;;;;;;0.65;0.65;;;15.90;67.60;;;;;;5048201;28;20076;-73
2022/04/26 15:36:09;;;;;;;2.30;1.42;;;15.90;67.60;;;;;;5048304;28;20525;-73
2022/04/26 15:38:35;;;;;;;0.13;0.13;;;15.90;66.70;;;;;;5031392;28;20044;-72
2022/04/26 15:41:01;;;;;;;0.55;0.55;;;15.80;66.70;;;;;;5030161;28;20047;-73
2022/04/26 15:43:30;;;;;;;4.05;2.17;;;15.80;66.60;;;;;;5043260;28;20095;-73
2022/04/26 15:45:55;;;;;;;1.65;1.08;;;15.70;67.50;;;;;;5051098;28;20396;-73
2022/04/26 15:48:23;;;;;;;0.65;0.65;;;15.70;66.50;;;;;;5051862;28;20033;-72
2022/04/26 15:50:48;;;;;;;0.50;0.50;;;15.60;64.70;;;;;;5048495;28;20053;-73
2022/04/26 15:53:14;;;;;;;0.22;0.22;;;15.50;64.10;;;;;;5047797;28;20518;-73
2022/04/26 15:55:40;;;;;;;0.63;0.63;;;15.40;64.90;;;;;;5051527;28;20488;-73
2022/04/26 15:58:05;;;;;;;0.20;0.20;;;15.40;66.10;;;;;;5035723;28;20046;-73
2022/04/26 16:00:31;;;;;;;1.17;1.08;;;15.40;65.00;;;;;;5033882;28;20076;-73
2022/04/26 16:02:57;;;;;;;0.82;0.80;;;15.30;64.20;;;;;;5050511;28;20041;-73
2022/04/26 16:05:23;;;;;;;4.22;2.05;;;15.20;65.30;;;;;;5047946;28;20119;-73
2022/04/26 16:07:49;;;;;;;0.43;0.43;;;15.20;64.50;;;;;;5046671;28;20119;-73
2022/04/26 16:21:11;;;;;;;0.55;0.55;;;15.00;65.90;;;;;;5050879;28;20040;-73
2022/04/26 16:23:37;;;;;;;0.80;0.80;;;14.90;65.70;;;;;;5049251;28;20074;-73
2022/04/26 16:26:03;;;;;;;2.72;1.20;;;14.90;64.80;;;;;;5045426;28;20425;-73
2022/04/26 16:28:33;;;;;;;0.20;0.20;;;14.90;65.70;;;;;;5037353;28;20053;-72
2022/04/26 16:30:58;;;;;;;2.30;1.63;;;14.70;67.00;;;;;;5032415;28;20555;-72
2022/04/26 16:33:24;;;;;;;0.38;0.38;;;14.80;67.20;;;;;;5048046;28;20066;-73
2022/04/26 16:35:50;;;;;;;0.43;0.43;;;14.70;68.00;;;;;;5041689;28;20048;-72
2022/04/26 16:38:17;;;;;;;1.15;0.65;;;14.70;67.90;;;;;;5051228;28;20404;-73
2022/04/26 16:40:44;;;;;;;0.40;0.40;;;14.70;67.70;;;;;;5031297;28;20396;-73
2022/04/26 16:43:11;;;;;;;3.75;0.75;;;14.70;67.60;;;;;;5045310;28;20036;-72
2022/04/26 16:45:37;;;;;;;0.20;0.20;;;14.70;68.40;;;;;;5037798;28;20036;-72
2022/04/26 16:48:03;;;;;;;0.30;0.30;;;14.70;67.20;;;;;;5045747;28;20503;-72
2022/04/26 16:50:29;;;;;;;1.85;0.60;;;14.70;66.70;;;;;;5016186;28;20532;-72
2022/04/26 16:52:57;;;;;;;3.58;3.22;;;14.60;67.30;;;;;;5051119;28;20039;-72
2022/04/26 16:55:23;;;;;;;0.13;0.13;;;14.50;67.00;;;;;;5038929;28;20048;-72
2022/04/26 16:57:48;;;;;;;0.95;0.95;;;14.40;66.70;;;;;;5075195;28;20072;-72
2022/04/26 17:00:15;;;;;;;0.30;0.30;;;14.20;66.50;;;;;;5050477;28;20076;-72
2022/04/26 17:02:41;;;;;;;1.20;0.45;;;13.90;66.50;;;;;;5047128;28;20036;-72
2022/04/26 17:05:07;;;;;;;0.30;0.30;;;13.70;67.90;;;;;;5040716;28;20050;-72
2022/04/26 17:07:33;;;;;;;0.38;0.38;;;13.70;68.20;;;;;;5081255;28;20518;-72
2022/04/26 17:09:59;;;;;;;0.70;0.70;;;13.50;67.60;;;;;;5029798;28;20032;-72
2022/04/26 17:12:26;;;;;;;1.15;1.10;;;13.50;68.60;;;;;;5025029;28;20103;-71
2022/04/26 17:14:54;;;;;;;0.13;0.13;;;13.60;69.50;;;;;;5047707;28;20036;-72
2022/04/26 17:17:21;;;;;;;0.40;0.40;;;13.70;69.50;;;;;;5033028;28;20507;-72